sensor_id;sensor_type;location;lat;lon;timestamp;temperature;humidity
65766;SHT31;52915;53.718;19.946;2023-07-13T00:00:30;18.66;80.54
65766;SHT31;52915;53.718;19.946;2023-07-13T00:05:59;18.61;80.57
65766;SHT31;52915;53.718;19.946;2023-07-13T00:11:05;18.62;80.43
65766;SHT31;52915;53.718;19.946;2023-07-13T00:16:11;18.57;80.32
65766;SHT31;52915;53.718;19.946;2023-07-13T00:21:17;18.44;80.26
65766;SHT31;52915;53.718;19.946;2023-07-13T00:26:22;18.31;80.44
65766;SHT31;52915;53.718;19.946;2023-07-13T00:31:26;18.19;80.67
65766;SHT31;52915;53.718;19.946;2023-07-13T00:36:31;18.12;80.78
65766;SHT31;52915;53.718;19.946;2023-07-13T00:41:35;18.09;80.84
65766;SHT31;52915;53.718;19.946;2023-07-13T00:46:40;18.08;80.69
65766;SHT31;52915;53.718;19.946;2023-07-13T00:51:45;18.04;80.56
65766;SHT31;52915;53.718;19.946;2023-07-13T00:56:59;18.00;80.52
65766;SHT31;52915;53.718;19.946;2023-07-13T01:02:06;17.90;80.67
65766;SHT31;52915;53.718;19.946;2023-07-13T01:07:11;17.86;80.46
65766;SHT31;52915;53.718;19.946;2023-07-13T01:12:16;17.79;80.46
65766;SHT31;52915;53.718;19.946;2023-07-13T01:17:21;17.71;80.57
65766;SHT31;52915;53.718;19.946;2023-07-13T01:22:25;17.66;80.58
65766;SHT31;52915;53.718;19.946;2023-07-13T01:27:30;17.60;80.70
65766;SHT31;52915;53.718;19.946;2023-07-13T01:32:34;17.56;80.79
65766;SHT31;52915;53.718;19.946;2023-07-13T01:37:40;17.47;81.00
65766;SHT31;52915;53.718;19.946;2023-07-13T01:42:44;17.37;81.50
65766;SHT31;52915;53.718;19.946;2023-07-13T01:47:48;17.26;82.02
65766;SHT31;52915;53.718;19.946;2023-07-13T01:52:52;17.30;82.25
65766;SHT31;52915;53.718;19.946;2023-07-13T01:57:57;17.39;82.19
65766;SHT31;52915;53.718;19.946;2023-07-13T02:03:01;17.43;82.10
65766;SHT31;52915;53.718;19.946;2023-07-13T02:08:06;17.44;82.10
65766;SHT31;52915;53.718;19.946;2023-07-13T02:13:10;17.40;82.17
65766;SHT31;52915;53.718;19.946;2023-07-13T02:18:14;17.36;82.24
65766;SHT31;52915;53.718;19.946;2023-07-13T02:23:20;17.34;82.07
65766;SHT31;52915;53.718;19.946;2023-07-13T02:28:24;17.44;81.61
65766;SHT31;52915;53.718;19.946;2023-07-13T02:33:29;17.33;81.72
65766;SHT31;52915;53.718;19.946;2023-07-13T02:38:34;17.26;81.83
65766;SHT31;52915;53.718;19.946;2023-07-13T02:43:39;17.23;81.95
65766;SHT31;52915;53.718;19.946;2023-07-13T02:48:44;17.22;82.14
65766;SHT31;52915;53.718;19.946;2023-07-13T02:53:48;17.21;82.30
65766;SHT31;52915;53.718;19.946;2023-07-13T02:58:52;17.25;82.33
65766;SHT31;52915;53.718;19.946;2023-07-13T03:03:58;17.27;82.50
65766;SHT31;52915;53.718;19.946;2023-07-13T03:09:02;17.32;82.54
65766;SHT31;52915;53.718;19.946;2023-07-13T03:14:07;17.32;82.67
65766;SHT31;52915;53.718;19.946;2023-07-13T03:19:12;17.24;82.92
65766;SHT31;52915;53.718;19.946;2023-07-13T03:24:16;17.32;83.03
65766;SHT31;52915;53.718;19.946;2023-07-13T03:29:21;17.42;82.91
65766;SHT31;52915;53.718;19.946;2023-07-13T03:34:25;17.55;82.78
65766;SHT31;52915;53.718;19.946;2023-07-13T03:39:29;17.68;82.42
65766;SHT31;52915;53.718;19.946;2023-07-13T03:44:33;17.70;82.26
65766;SHT31;52915;53.718;19.946;2023-07-13T03:49:38;17.73;82.21
65766;SHT31;52915;53.718;19.946;2023-07-13T03:54:43;17.77;82.23
65766;SHT31;52915;53.718;19.946;2023-07-13T03:59:47;17.85;82.13
65766;SHT31;52915;53.718;19.946;2023-07-13T04:04:51;17.79;82.25
65766;SHT31;52915;53.718;19.946;2023-07-13T04:09:56;17.73;82.46
65766;SHT31;52915;53.718;19.946;2023-07-13T04:15:01;17.83;82.47
65766;SHT31;52915;53.718;19.946;2023-07-13T04:20:05;17.98;82.15
65766;SHT31;52915;53.718;19.946;2023-07-13T04:25:11;18.08;81.96
65766;SHT31;52915;53.718;19.946;2023-07-13T04:30:15;18.06;82.07
65766;SHT31;52915;53.718;19.946;2023-07-13T04:35:19;18.08;82.15
65766;SHT31;52915;53.718;19.946;2023-07-13T04:40:24;18.11;82.31
65766;SHT31;52915;53.718;19.946;2023-07-13T04:45:30;18.22;82.32
65766;SHT31;52915;53.718;19.946;2023-07-13T04:50:38;18.33;82.25
65766;SHT31;52915;53.718;19.946;2023-07-13T04:55:43;18.52;82.12
65766;SHT31;52915;53.718;19.946;2023-07-13T05:00:47;18.66;81.95
65766;SHT31;52915;53.718;19.946;2023-07-13T05:05:55;18.83;81.68
65766;SHT31;52915;53.718;19.946;2023-07-13T05:11:04;18.85;81.55
65766;SHT31;52915;53.718;19.946;2023-07-13T05:16:10;18.95;81.29
65766;SHT31;52915;53.718;19.946;2023-07-13T05:21:15;19.08;80.96
65766;SHT31;52915;53.718;19.946;2023-07-13T05:26:20;19.33;80.37
65766;SHT31;52915;53.718;19.946;2023-07-13T05:31:24;19.59;79.71
65766;SHT31;52915;53.718;19.946;2023-07-13T05:36:29;19.62;79.51
65766;SHT31;52915;53.718;19.946;2023-07-13T05:41:33;19.65;79.06
65766;SHT31;52915;53.718;19.946;2023-07-13T05:46:37;19.82;78.61
65766;SHT31;52915;53.718;19.946;2023-07-13T05:51:42;19.97;78.00
65766;SHT31;52915;53.718;19.946;2023-07-13T05:56:46;20.33;77.58
65766;SHT31;52915;53.718;19.946;2023-07-13T06:01:50;20.75;76.67
65766;SHT31;52915;53.718;19.946;2023-07-13T06:06:55;20.99;75.71
65766;SHT31;52915;53.718;19.946;2023-07-13T06:12:00;21.30;75.07
65766;SHT31;52915;53.718;19.946;2023-07-13T06:17:04;21.61;74.00
65766;SHT31;52915;53.718;19.946;2023-07-13T06:22:09;21.95;73.47
65766;SHT31;52915;53.718;19.946;2023-07-13T06:27:14;22.24;72.46
65766;SHT31;52915;53.718;19.946;2023-07-13T06:32:18;22.53;71.76
65766;SHT31;52915;53.718;19.946;2023-07-13T06:37:22;22.77;71.04
65766;SHT31;52915;53.718;19.946;2023-07-13T06:42:27;22.76;70.11
65766;SHT31;52915;53.718;19.946;2023-07-13T06:47:31;22.67;69.99
65766;SHT31;52915;53.718;19.946;2023-07-13T06:52:36;22.80;70.24
65766;SHT31;52915;53.718;19.946;2023-07-13T06:57:40;23.20;69.76
65766;SHT31;52915;53.718;19.946;2023-07-13T07:02:45;23.50;69.08
65766;SHT31;52915;53.718;19.946;2023-07-13T07:07:49;23.75;67.44
65766;SHT31;52915;53.718;19.946;2023-07-13T07:12:55;23.86;66.21
65766;SHT31;52915;53.718;19.946;2023-07-13T07:17:59;24.07;65.11
65766;SHT31;52915;53.718;19.946;2023-07-13T07:23:03;24.17;64.37
65766;SHT31;52915;53.718;19.946;2023-07-13T07:28:08;24.24;62.99
65766;SHT31;52915;53.718;19.946;2023-07-13T07:33:15;24.48;62.33
65766;SHT31;52915;53.718;19.946;2023-07-13T07:38:20;24.80;61.12
65766;SHT31;52915;53.718;19.946;2023-07-13T07:43:26;25.10;60.85
65766;SHT31;52915;53.718;19.946;2023-07-13T07:48:31;25.36;58.96
65766;SHT31;52915;53.718;19.946;2023-07-13T07:53:35;25.45;58.05
65766;SHT31;52915;53.718;19.946;2023-07-13T07:58:51;25.54;56.67
65766;SHT31;52915;53.718;19.946;2023-07-13T08:03:59;25.79;57.30
65766;SHT31;52915;53.718;19.946;2023-07-13T08:09:06;26.06;55.29
65766;SHT31;52915;53.718;19.946;2023-07-13T08:14:13;26.20;54.20
65766;SHT31;52915;53.718;19.946;2023-07-13T08:19:17;26.23;53.78
65766;SHT31;52915;53.718;19.946;2023-07-13T08:24:23;26.43;53.92
65766;SHT31;52915;53.718;19.946;2023-07-13T08:29:27;26.84;53.24
65766;SHT31;52915;53.718;19.946;2023-07-13T08:34:35;27.16;52.17
65766;SHT31;52915;53.718;19.946;2023-07-13T08:39:39;27.47;51.87
65766;SHT31;52915;53.718;19.946;2023-07-13T08:50:30;28.07;50.42
65766;SHT31;52915;53.718;19.946;2023-07-13T08:56:02;28.33;49.52
65766;SHT31;52915;53.718;19.946;2023-07-13T09:16:19;28.38;48.62
65766;SHT31;52915;53.718;19.946;2023-07-13T09:21:29;28.58;46.38
65766;SHT31;52915;53.718;19.946;2023-07-13T09:26:40;28.71;46.15
65766;SHT31;52915;53.718;19.946;2023-07-13T09:31:46;28.68;45.40
65766;SHT31;52915;53.718;19.946;2023-07-13T09:36:57;28.79;44.40
65766;SHT31;52915;53.718;19.946;2023-07-13T09:47:15;29.02;43.63
65766;SHT31;52915;53.718;19.946;2023-07-13T09:52:23;29.06;44.71
65766;SHT31;52915;53.718;19.946;2023-07-13T09:57:29;29.40;44.42
65766;SHT31;52915;53.718;19.946;2023-07-13T10:02:59;29.39;44.46
65766;SHT31;52915;53.718;19.946;2023-07-13T10:08:05;29.12;43.83
65766;SHT31;52915;53.718;19.946;2023-07-13T10:13:23;29.09;43.94
65766;SHT31;52915;53.718;19.946;2023-07-13T10:18:44;29.31;44.53
65766;SHT31;52915;53.718;19.946;2023-07-13T10:23:54;29.56;43.55
65766;SHT31;52915;53.718;19.946;2023-07-13T10:29:09;29.88;43.23
65766;SHT31;52915;53.718;19.946;2023-07-13T10:34:17;29.91;42.81
65766;SHT31;52915;53.718;19.946;2023-07-13T10:39:24;29.39;43.26
65766;SHT31;52915;53.718;19.946;2023-07-13T10:44:32;28.90;43.58
65766;SHT31;52915;53.718;19.946;2023-07-13T10:49:37;29.03;43.38
65766;SHT31;52915;53.718;19.946;2023-07-13T10:54:44;29.23;43.97
65766;SHT31;52915;53.718;19.946;2023-07-13T11:00:14;29.62;44.63
65766;SHT31;52915;53.718;19.946;2023-07-13T11:05:30;30.19;43.71
65766;SHT31;52915;53.718;19.946;2023-07-13T11:10:48;30.50;41.97
65766;SHT31;52915;53.718;19.946;2023-07-13T11:16:00;30.42;40.38
65766;SHT31;52915;53.718;19.946;2023-07-13T11:21:20;29.91;40.13
65766;SHT31;52915;53.718;19.946;2023-07-13T11:26:41;29.39;41.44
65766;SHT31;52915;53.718;19.946;2023-07-13T11:31:53;29.76;41.53
65766;SHT31;52915;53.718;19.946;2023-07-13T11:37:03;29.55;39.18
65766;SHT31;52915;53.718;19.946;2023-07-13T11:42:17;28.99;41.15
65766;SHT31;52915;53.718;19.946;2023-07-13T11:47:39;28.91;41.88
65766;SHT31;52915;53.718;19.946;2023-07-13T11:52:46;28.79;41.65
65766;SHT31;52915;53.718;19.946;2023-07-13T11:57:58;28.73;41.49
65766;SHT31;52915;53.718;19.946;2023-07-13T12:03:06;28.69;42.04
65766;SHT31;52915;53.718;19.946;2023-07-13T12:08:11;28.64;42.81
65766;SHT31;52915;53.718;19.946;2023-07-13T12:13:26;28.62;41.63
65766;SHT31;52915;53.718;19.946;2023-07-13T12:18:32;28.54;40.70
65766;SHT31;52915;53.718;19.946;2023-07-13T12:23:38;28.54;42.83
65766;SHT31;52915;53.718;19.946;2023-07-13T12:28:49;28.64;44.17
65766;SHT31;52915;53.718;19.946;2023-07-13T12:34:07;28.78;44.17
65766;SHT31;52915;53.718;19.946;2023-07-13T12:39:22;28.75;43.38
65766;SHT31;52915;53.718;19.946;2023-07-13T12:44:33;28.57;44.10
65766;SHT31;52915;53.718;19.946;2023-07-13T12:49:42;28.28;44.51
65766;SHT31;52915;53.718;19.946;2023-07-13T12:55:07;27.97;45.10
65766;SHT31;52915;53.718;19.946;2023-07-13T13:00:31;27.77;45.71
65766;SHT31;52915;53.718;19.946;2023-07-13T13:05:42;27.54;45.89
65766;SHT31;52915;53.718;19.946;2023-07-13T13:10:49;27.20;46.11
65766;SHT31;52915;53.718;19.946;2023-07-13T13:15:54;26.84;49.31
65766;SHT31;52915;53.718;19.946;2023-07-13T13:20:58;26.00;53.18
65766;SHT31;52915;53.718;19.946;2023-07-13T13:26:07;25.28;56.67
65766;SHT31;52915;53.718;19.946;2023-07-13T13:31:17;24.81;59.53
65766;SHT31;52915;53.718;19.946;2023-07-13T13:36:22;24.52;58.05
65766;SHT31;52915;53.718;19.946;2023-07-13T13:41:27;24.14;58.15
65766;SHT31;52915;53.718;19.946;2023-07-13T13:46:31;23.79;58.83
65766;SHT31;52915;53.718;19.946;2023-07-13T13:51:35;23.31;58.99
65766;SHT31;52915;53.718;19.946;2023-07-13T13:56:41;22.52;60.16
65766;SHT31;52915;53.718;19.946;2023-07-13T14:01:51;22.20;61.08
65766;SHT31;52915;53.718;19.946;2023-07-13T14:06:55;22.27;60.94
65766;SHT31;52915;53.718;19.946;2023-07-13T14:12:00;22.33;61.15
65766;SHT31;52915;53.718;19.946;2023-07-13T14:17:04;22.29;62.51
65766;SHT31;52915;53.718;19.946;2023-07-13T14:22:17;22.21;64.08
65766;SHT31;52915;53.718;19.946;2023-07-13T14:27:22;22.18;65.04
65766;SHT31;52915;53.718;19.946;2023-07-13T14:32:26;21.96;66.60
65766;SHT31;52915;53.718;19.946;2023-07-13T14:37:33;21.83;68.57
65766;SHT31;52915;53.718;19.946;2023-07-13T14:42:42;21.71;69.78
65766;SHT31;52915;53.718;19.946;2023-07-13T14:47:47;21.72;70.04
65766;SHT31;52915;53.718;19.946;2023-07-13T14:52:54;21.78;70.24
65766;SHT31;52915;53.718;19.946;2023-07-13T14:57:59;21.86;70.26
65766;SHT31;52915;53.718;19.946;2023-07-13T15:03:04;21.98;70.64
65766;SHT31;52915;53.718;19.946;2023-07-13T15:08:10;22.15;70.87
65766;SHT31;52915;53.718;19.946;2023-07-13T15:13:17;22.54;70.39
65766;SHT31;52915;53.718;19.946;2023-07-13T15:18:24;22.92;69.96
65766;SHT31;52915;53.718;19.946;2023-07-13T15:23:30;23.17;69.21
65766;SHT31;52915;53.718;19.946;2023-07-13T15:28:35;23.35;68.48
65766;SHT31;52915;53.718;19.946;2023-07-13T15:33:39;23.74;68.10
65766;SHT31;52915;53.718;19.946;2023-07-13T15:38:46;23.94;67.27
65766;SHT31;52915;53.718;19.946;2023-07-13T15:43:54;24.54;66.75
65766;SHT31;52915;53.718;19.946;2023-07-13T15:49:04;25.08;65.85
65766;SHT31;52915;53.718;19.946;2023-07-13T15:54:14;25.18;64.51
65766;SHT31;52915;53.718;19.946;2023-07-13T15:59:22;25.04;62.81
65766;SHT31;52915;53.718;19.946;2023-07-13T16:04:26;24.81;62.99
65766;SHT31;52915;53.718;19.946;2023-07-13T16:09:31;24.45;63.60
65766;SHT31;52915;53.718;19.946;2023-07-13T16:14:36;24.11;64.29
65766;SHT31;52915;53.718;19.946;2023-07-13T16:19:41;23.75;64.69
65766;SHT31;52915;53.718;19.946;2023-07-13T16:24:45;23.34;65.07
65766;SHT31;52915;53.718;19.946;2023-07-13T16:29:51;23.03;65.74
65766;SHT31;52915;53.718;19.946;2023-07-13T16:34:55;22.73;66.54
65766;SHT31;52915;53.718;19.946;2023-07-13T16:39:59;22.50;66.94
65766;SHT31;52915;53.718;19.946;2023-07-13T16:45:04;22.26;67.39
65766;SHT31;52915;53.718;19.946;2023-07-13T16:50:20;22.12;67.60
65766;SHT31;52915;53.718;19.946;2023-07-13T16:55:28;21.96;68.43
65766;SHT31;52915;53.718;19.946;2023-07-13T17:00:33;21.84;68.99
65766;SHT31;52915;53.718;19.946;2023-07-13T17:05:41;21.83;69.29
65766;SHT31;52915;53.718;19.946;2023-07-13T17:10:48;21.66;69.49
65766;SHT31;52915;53.718;19.946;2023-07-13T17:15:55;21.52;70.82
65766;SHT31;52915;53.718;19.946;2023-07-13T17:21:02;21.28;72.65
65766;SHT31;52915;53.718;19.946;2023-07-13T17:26:09;21.35;73.29
65766;SHT31;52915;53.718;19.946;2023-07-13T17:31:17;21.49;73.27
65766;SHT31;52915;53.718;19.946;2023-07-13T17:36:25;21.59;73.32
65766;SHT31;52915;53.718;19.946;2023-07-13T17:41:29;21.54;73.68
65766;SHT31;52915;53.718;19.946;2023-07-13T17:46:34;21.49;73.65
65766;SHT31;52915;53.718;19.946;2023-07-13T17:51:39;21.41;73.64
65766;SHT31;52915;53.718;19.946;2023-07-13T17:56:45;21.39;73.21
65766;SHT31;52915;53.718;19.946;2023-07-13T18:01:51;21.37;74.07
65766;SHT31;52915;53.718;19.946;2023-07-13T18:06:57;21.33;74.21
65766;SHT31;52915;53.718;19.946;2023-07-13T18:12:11;21.00;74.94
65766;SHT31;52915;53.718;19.946;2023-07-13T18:17:17;20.93;75.32
65766;SHT31;52915;53.718;19.946;2023-07-13T18:22:26;20.94;75.79
65766;SHT31;52915;53.718;19.946;2023-07-13T18:27:33;20.89;76.39
65766;SHT31;52915;53.718;19.946;2023-07-13T18:32:40;20.81;76.85
65766;SHT31;52915;53.718;19.946;2023-07-13T18:37:54;20.68;77.18
65766;SHT31;52915;53.718;19.946;2023-07-13T18:43:00;20.61;77.31
65766;SHT31;52915;53.718;19.946;2023-07-13T18:48:12;20.56;77.28
65766;SHT31;52915;53.718;19.946;2023-07-13T18:53:26;20.51;77.36
65766;SHT31;52915;53.718;19.946;2023-07-13T18:58:30;20.47;77.43
65766;SHT31;52915;53.718;19.946;2023-07-13T19:03:38;20.43;77.42
65766;SHT31;52915;53.718;19.946;2023-07-13T19:08:43;20.32;77.58
65766;SHT31;52915;53.718;19.946;2023-07-13T19:13:49;20.16;77.97
65766;SHT31;52915;53.718;19.946;2023-07-13T19:18:54;20.13;78.23
65766;SHT31;52915;53.718;19.946;2023-07-13T19:24:01;20.10;78.32
65766;SHT31;52915;53.718;19.946;2023-07-13T19:29:07;20.10;78.33
65766;SHT31;52915;53.718;19.946;2023-07-13T19:34:25;20.11;78.32
65766;SHT31;52915;53.718;19.946;2023-07-13T19:39:32;20.04;78.45
65766;SHT31;52915;53.718;19.946;2023-07-13T19:44:42;20.00;78.57
65766;SHT31;52915;53.718;19.946;2023-07-13T19:49:47;19.90;78.59
65766;SHT31;52915;53.718;19.946;2023-07-13T19:54:52;19.82;78.50
65766;SHT31;52915;53.718;19.946;2023-07-13T19:59:59;19.71;78.42
65766;SHT31;52915;53.718;19.946;2023-07-13T20:05:06;19.57;78.50
65766;SHT31;52915;53.718;19.946;2023-07-13T20:10:24;19.48;78.37
65766;SHT31;52915;53.718;19.946;2023-07-13T20:15:36;19.37;78.29
65766;SHT31;52915;53.718;19.946;2023-07-13T20:20:42;19.26;78.35
65766;SHT31;52915;53.718;19.946;2023-07-13T20:25:50;19.15;78.53
65766;SHT31;52915;53.718;19.946;2023-07-13T20:30:55;19.04;79.07
65766;SHT31;52915;53.718;19.946;2023-07-13T20:36:01;19.05;79.01
65766;SHT31;52915;53.718;19.946;2023-07-13T20:41:10;19.06;78.79
65766;SHT31;52915;53.718;19.946;2023-07-13T20:46:16;18.96;78.94
65766;SHT31;52915;53.718;19.946;2023-07-13T20:51:23;18.85;78.93
65766;SHT31;52915;53.718;19.946;2023-07-13T20:56:30;18.86;78.86
65766;SHT31;52915;53.718;19.946;2023-07-13T21:01:35;18.81;78.99
65766;SHT31;52915;53.718;19.946;2023-07-13T21:06:41;18.75;79.01
65766;SHT31;52915;53.718;19.946;2023-07-13T21:11:46;18.70;79.11
65766;SHT31;52915;53.718;19.946;2023-07-13T21:16:52;18.69;78.93
65766;SHT31;52915;53.718;19.946;2023-07-13T21:21:57;18.52;79.08
65766;SHT31;52915;53.718;19.946;2023-07-13T21:27:02;18.30;79.76
65766;SHT31;52915;53.718;19.946;2023-07-13T21:32:11;18.16;80.32
65766;SHT31;52915;53.718;19.946;2023-07-13T21:37:21;18.01;81.15
65766;SHT31;52915;53.718;19.946;2023-07-13T21:42:25;17.99;81.32
65766;SHT31;52915;53.718;19.946;2023-07-13T21:47:29;17.97;81.46
65766;SHT31;52915;53.718;19.946;2023-07-13T21:52:36;17.90;81.89
65766;SHT31;52915;53.718;19.946;2023-07-13T21:57:39;17.78;82.18
65766;SHT31;52915;53.718;19.946;2023-07-13T22:02:44;17.76;82.18
65766;SHT31;52915;53.718;19.946;2023-07-13T22:07:49;17.88;81.93
65766;SHT31;52915;53.718;19.946;2023-07-13T22:12:54;17.94;81.67
65766;SHT31;52915;53.718;19.946;2023-07-13T22:17:58;17.93;81.51
65766;SHT31;52915;53.718;19.946;2023-07-13T22:23:11;17.88;81.40
65766;SHT31;52915;53.718;19.946;2023-07-13T22:28:26;17.70;81.68
65766;SHT31;52915;53.718;19.946;2023-07-13T22:33:31;17.59;82.21
65766;SHT31;52915;53.718;19.946;2023-07-13T22:38:36;17.59;82.49
65766;SHT31;52915;53.718;19.946;2023-07-13T22:43:40;17.70;82.23
65766;SHT31;52915;53.718;19.946;2023-07-13T22:49:33;17.66;82.29
65766;SHT31;52915;53.718;19.946;2023-07-13T22:54:28;17.54;82.69
65766;SHT31;52915;53.718;19.946;2023-07-13T22:59:34;17.50;82.81
65766;SHT31;52915;53.718;19.946;2023-07-13T23:04:40;17.57;82.71
65766;SHT31;52915;53.718;19.946;2023-07-13T23:09:44;17.56;82.60
65766;SHT31;52915;53.718;19.946;2023-07-13T23:15:14;17.54;82.61
65766;SHT31;52915;53.718;19.946;2023-07-13T23:20:31;17.48;82.57
65766;SHT31;52915;53.718;19.946;2023-07-13T23:25:38;17.44;82.64
65766;SHT31;52915;53.718;19.946;2023-07-13T23:30:45;17.46;82.52
65766;SHT31;52915;53.718;19.946;2023-07-13T23:35:54;17.55;82.29
65766;SHT31;52915;53.718;19.946;2023-07-13T23:41:01;17.46;83.11
65766;SHT31;52915;53.718;19.946;2023-07-13T23:51:50;16.76;78.85
65766;SHT31;52915;53.718;19.946;2023-07-13T23:56:58;16.48;78.12
